createdAt,value
2023-02-11T05:00:31.447Z,87.63
2023-02-11T05:01:32.470Z,87.63
2023-02-11T05:02:32.433Z,87.63
2023-02-11T05:03:32.402Z,87.74
2023-02-11T05:04:32.486Z,87.63
2023-02-11T05:05:32.390Z,87.63
2023-02-11T05:06:32.391Z,87.63
2023-02-11T05:07:32.378Z,87.74
2023-02-11T05:08:32.379Z,87.63
2023-02-11T05:09:32.349Z,87.63
2023-02-11T05:10:32.359Z,87.74
2023-02-11T05:11:32.324Z,87.84
2023-02-11T05:12:32.347Z,87.84
2023-02-11T05:13:32.305Z,87.84
2023-02-11T05:14:32.318Z,87.84
2023-02-11T05:15:32.274Z,88.26
2023-02-11T05:16:32.307Z,88.67
2023-02-11T05:17:32.249Z,89.09
2023-02-11T05:18:32.241Z,89.50
2023-02-11T05:19:32.244Z,89.81
2023-02-11T05:20:32.237Z,90.12
2023-02-11T05:21:32.225Z,90.54
2023-02-11T05:22:32.203Z,90.33
2023-02-11T05:23:32.182Z,90.27
2023-02-11T05:24:32.309Z,89.92
2023-02-11T05:25:32.182Z,89.81
2023-02-11T05:26:32.448Z,89.61
2023-02-11T05:27:32.159Z,89.50
2023-02-11T05:28:32.179Z,89.61
2023-02-11T05:29:32.124Z,89.81
2023-02-11T05:30:32.181Z,89.92
2023-02-11T05:31:32.118Z,89.92
2023-02-11T05:32:32.098Z,90.02
2023-02-11T05:33:32.087Z,90.12
2023-02-11T05:34:32.083Z,90.12
2023-02-11T05:35:32.055Z,90.12
2023-02-11T05:36:33.441Z,90.23
2023-02-11T05:37:32.119Z,90.44
2023-02-11T05:38:32.041Z,90.54
2023-02-11T05:39:32.005Z,90.64
2023-02-11T05:40:32.014Z,90.54
2023-02-11T05:41:32.022Z,90.54
2023-02-11T05:42:32.001Z,90.54
2023-02-11T05:43:31.980Z,90.75
2023-02-11T05:44:32.001Z,90.75
2023-02-11T05:45:31.995Z,90.85
2023-02-11T05:46:32.031Z,90.95
2023-02-11T05:47:31.930Z,90.95
2023-02-11T05:48:31.918Z,90.95
2023-02-11T05:49:31.907Z,90.95
2023-02-11T05:50:31.899Z,91.16
2023-02-11T05:51:31.906Z,91.16
2023-02-11T05:52:31.885Z,91.37
2023-02-11T05:53:31.882Z,91.37
2023-02-11T05:54:31.855Z,91.47
2023-02-11T05:55:31.846Z,91.68
2023-02-11T05:56:31.850Z,92.30
2023-02-11T05:57:31.828Z,92.61
2023-02-11T05:58:31.810Z,92.72
2023-02-11T05:59:31.797Z,92.82
2023-02-11T06:00:31.791Z,92.82
2023-02-11T06:01:31.784Z,92.82
2023-02-11T06:02:31.843Z,92.93
2023-02-11T06:03:31.772Z,92.93
2023-02-11T06:04:31.736Z,93.02
2023-02-11T06:05:31.697Z,93.13
2023-02-11T06:06:31.680Z,93.13
2023-02-11T06:07:31.667Z,93.02
2023-02-11T06:08:31.673Z,93.23
2023-02-11T06:09:31.649Z,93.33
2023-02-11T06:10:31.657Z,93.29
2023-02-11T06:11:31.621Z,93.33
2023-02-11T06:12:31.613Z,93.40
2023-02-11T06:13:31.652Z,93.40
2023-02-11T06:14:31.599Z,93.40
2023-02-11T06:15:31.606Z,93.50
2023-02-11T06:16:31.638Z,93.40
2023-02-11T06:17:31.604Z,93.50
2023-02-11T06:18:31.614Z,93.50
2023-02-11T06:19:31.531Z,93.60
2023-02-11T06:20:31.528Z,93.60
2023-02-11T06:21:42.775Z,93.50
2023-02-11T06:22:31.506Z,93.40
2023-02-11T06:23:31.481Z,93.50
2023-02-11T06:24:51.331Z,93.60
2023-02-11T06:25:31.463Z,93.71
2023-02-11T06:26:31.476Z,93.60
2023-02-11T06:27:31.460Z,93.60
2023-02-11T06:28:31.523Z,93.60
2023-02-11T06:29:31.422Z,93.81
2023-02-11T06:30:31.420Z,93.77
2023-02-11T06:31:31.584Z,93.87
2023-02-11T06:32:46.989Z,93.87
2023-02-11T06:33:31.394Z,94.08
2023-02-11T06:34:31.369Z,94.08
2023-02-11T06:35:31.408Z,94.18
2023-02-11T06:36:31.377Z,94.29
2023-02-11T06:37:31.353Z,94.39
2023-02-11T06:38:31.339Z,94.43
2023-02-11T06:39:31.313Z,94.49
2023-02-11T06:40:31.296Z,94.60
2023-02-11T06:41:31.296Z,94.70
2023-02-11T06:42:31.295Z,94.81
2023-02-11T06:43:31.284Z,94.91
2023-02-11T06:44:31.259Z,95.12
2023-02-11T06:45:31.281Z,95.43
2023-02-11T06:46:31.307Z,95.53
2023-02-11T06:47:31.252Z,95.64
2023-02-11T06:48:31.220Z,95.74
2023-02-11T06:49:31.215Z,95.95
2023-02-11T06:50:31.226Z,95.95
2023-02-11T06:51:31.199Z,95.99
2023-02-11T06:52:31.176Z,96.09
2023-02-11T06:53:31.212Z,96.05
2023-02-11T06:54:31.156Z,95.95
2023-02-11T06:55:31.187Z,96.05
2023-02-11T06:56:31.156Z,96.05
2023-02-11T06:57:31.134Z,96.15
2023-02-11T06:58:31.162Z,96.15
2023-02-11T06:59:31.101Z,96.20
2023-02-11T07:00:31.142Z,96.30
2023-02-11T07:01:31.165Z,96.30
2023-02-11T07:02:31.166Z,96.30
2023-02-11T07:03:31.078Z,96.30
2023-02-11T07:04:31.050Z,96.41
2023-02-11T07:05:31.041Z,96.30
2023-02-11T07:06:31.028Z,96.30
2023-02-11T07:07:33.903Z,96.30
2023-02-11T07:08:31.006Z,96.30
2023-02-11T07:09:31.023Z,96.30
2023-02-11T07:10:30.970Z,96.20
2023-02-11T07:11:30.958Z,96.20
2023-02-11T07:12:31.424Z,96.41
2023-02-11T07:13:30.954Z,96.30
2023-02-11T07:14:30.970Z,96.41
2023-02-11T07:15:30.925Z,96.30
2023-02-11T07:16:30.999Z,96.26
2023-02-11T07:17:30.964Z,96.20
2023-02-11T07:18:30.892Z,96.26
2023-02-11T07:19:30.886Z,96.15
2023-02-11T07:20:30.858Z,96.05
2023-02-11T07:21:30.866Z,95.95
2023-02-11T07:22:30.878Z,95.84
2023-02-11T07:23:30.852Z,95.84
2023-02-11T07:24:30.830Z,95.74
2023-02-11T07:25:30.821Z,95.74
2023-02-11T07:26:30.802Z,95.64
2023-02-11T07:27:30.808Z,95.64
2023-02-11T07:28:30.866Z,95.53
2023-02-11T07:29:30.770Z,95.53
2023-02-11T07:30:30.762Z,95.43
2023-02-11T07:31:30.941Z,95.43
2023-02-11T07:32:30.751Z,95.22
2023-02-11T07:33:30.740Z,95.32
2023-02-11T07:34:30.773Z,94.97
2023-02-11T07:35:30.703Z,94.97
2023-02-11T07:36:30.711Z,94.87
2023-02-11T07:37:30.693Z,94.87
2023-02-11T07:38:30.677Z,94.87
2023-02-11T07:39:30.665Z,94.66
2023-02-11T07:40:30.654Z,94.56
2023-02-11T07:41:30.643Z,94.56
2023-02-11T07:42:30.644Z,94.45
2023-02-11T07:43:30.627Z,94.35
2023-02-11T07:44:30.609Z,94.24
2023-02-11T07:45:30.603Z,94.14
2023-02-11T07:46:30.619Z,94.14
2023-02-11T07:47:30.609Z,94.04
2023-02-11T07:48:30.587Z,93.68
2023-02-11T07:49:30.570Z,93.68
2023-02-11T07:50:30.570Z,93.48
2023-02-11T07:51:30.540Z,93.48
2023-02-11T07:52:30.542Z,93.58
2023-02-11T07:53:30.515Z,93.68
2023-02-11T07:54:30.493Z,93.68
2023-02-11T07:55:30.504Z,93.68
2023-02-11T07:56:30.518Z,93.58
2023-02-11T07:57:30.502Z,93.58
2023-02-11T07:58:30.455Z,93.48
2023-02-11T07:59:30.454Z,93.48
2023-02-11T08:00:30.433Z,93.48
2023-02-11T08:01:30.431Z,93.48
2023-02-11T08:02:30.499Z,93.48
2023-02-11T08:03:30.485Z,93.37
2023-02-11T08:04:30.414Z,93.27
2023-02-11T08:05:30.427Z,93.37
2023-02-11T08:06:30.417Z,93.54
2023-02-11T08:07:30.383Z,93.48
2023-02-11T08:08:30.392Z,93.33
2023-02-11T08:09:32.226Z,93.33
2023-02-11T08:10:30.324Z,93.43
2023-02-11T08:11:30.336Z,93.33
2023-02-11T08:12:30.344Z,93.33
2023-02-11T08:13:30.301Z,93.33
2023-02-11T08:14:30.285Z,93.33
2023-02-11T08:15:30.273Z,93.43
2023-02-11T08:16:30.354Z,93.33
2023-02-11T08:17:30.262Z,93.43
2023-02-11T08:18:30.276Z,93.33
2023-02-11T08:19:30.320Z,93.43
2023-02-11T08:20:30.239Z,93.43
2023-02-11T08:21:30.475Z,93.43
2023-02-11T08:22:30.198Z,93.43
2023-02-11T08:23:30.272Z,93.33
2023-02-11T08:24:30.198Z,93.54
2023-02-11T08:25:30.168Z,93.43
2023-02-11T08:26:30.148Z,93.43
2023-02-11T08:27:30.147Z,93.54
2023-02-11T08:28:30.206Z,93.39
2023-02-11T08:29:30.128Z,93.39
2023-02-11T08:30:30.123Z,93.39
2023-02-11T08:31:30.254Z,93.39
2023-02-11T08:32:30.079Z,93.29
2023-02-11T08:33:30.176Z,93.60
2023-02-11T08:34:30.061Z,93.80
2023-02-11T08:35:30.095Z,93.70
2023-02-11T08:36:30.051Z,93.80
2023-02-11T08:37:32.921Z,94.12
2023-02-11T08:38:30.135Z,94.22
2023-02-11T08:39:30.088Z,94.32
2023-02-11T08:40:30.001Z,94.63
2023-02-11T08:41:30.022Z,94.84
2023-02-11T08:42:29.969Z,95.04
2023-02-11T08:43:29.974Z,95.25
2023-02-11T08:44:29.977Z,95.46
2023-02-11T08:45:30.004Z,95.56
2023-02-11T08:46:30.008Z,95.67
2023-02-11T08:47:29.919Z,95.77
2023-02-11T08:48:29.920Z,95.67
2023-02-11T08:49:29.921Z,95.56
2023-02-11T08:50:30.048Z,95.67
2023-02-11T08:51:29.935Z,95.77
2023-02-11T08:52:29.864Z,95.56
2023-02-11T08:53:29.869Z,95.56
2023-02-11T08:54:29.877Z,95.56
2023-02-11T08:55:29.871Z,95.67
2023-02-11T08:56:29.835Z,95.67
2023-02-11T08:57:29.854Z,95.67
2023-02-11T08:58:29.810Z,95.67
2023-02-11T08:59:29.861Z,95.62
2023-02-11T09:00:29.809Z,95.62
2023-02-11T09:01:29.873Z,95.87
2023-02-11T09:02:29.793Z,95.83
2023-02-11T09:03:29.761Z,95.94
2023-02-11T09:04:29.750Z,96.03
2023-02-11T09:05:29.721Z,96.03
2023-02-11T09:06:29.718Z,96.14
2023-02-11T09:07:29.719Z,96.14
2023-02-11T09:08:29.713Z,96.24
2023-02-11T09:09:29.702Z,96.34
2023-02-11T09:10:29.669Z,96.45
2023-02-11T09:11:29.713Z,96.45
2023-02-11T09:12:29.670Z,96.55
2023-02-11T09:13:29.643Z,96.55
2023-02-11T09:14:29.652Z,96.55
2023-02-11T09:15:29.629Z,96.55
2023-02-11T09:16:29.687Z,96.55
2023-02-11T09:17:29.592Z,96.45
2023-02-11T09:18:29.581Z,96.45
2023-02-11T09:19:29.589Z,96.24
2023-02-11T09:20:29.579Z,96.24
2023-02-11T09:21:29.562Z,96.14
2023-02-11T09:22:29.545Z,96.14
2023-02-11T09:23:29.560Z,96.14
2023-02-11T09:24:29.536Z,96.03
2023-02-11T09:25:29.545Z,96.14
2023-02-11T09:26:29.534Z,96.03
2023-02-11T09:27:29.501Z,96.03
2023-02-11T09:28:29.499Z,96.03
2023-02-11T09:29:29.470Z,95.94
2023-02-11T09:30:29.515Z,95.94
2023-02-11T09:31:29.655Z,95.83
2023-02-11T09:32:29.472Z,95.83
2023-02-11T09:33:29.455Z,95.83
2023-02-11T09:34:29.414Z,95.73
2023-02-11T09:35:29.404Z,95.73
2023-02-11T09:36:29.425Z,95.83
2023-02-11T09:37:29.397Z,95.83
2023-02-11T09:38:29.382Z,95.78
2023-02-11T09:39:29.355Z,95.73
2023-02-11T09:40:29.345Z,95.57
2023-02-11T09:41:29.489Z,95.57
2023-02-11T09:42:29.345Z,95.57
2023-02-11T09:43:29.354Z,95.57
2023-02-11T09:44:29.313Z,95.57
2023-02-11T09:45:29.309Z,95.48
2023-02-11T09:46:29.407Z,95.57
2023-02-11T09:47:29.286Z,95.48
2023-02-11T09:48:29.316Z,95.48
2023-02-11T09:49:29.270Z,95.37
2023-02-11T09:50:29.262Z,95.27
2023-02-11T09:51:29.240Z,95.27
2023-02-11T09:52:29.476Z,95.27
2023-02-11T09:53:57.659Z,95.27
2023-02-11T09:54:57.305Z,95.27
2023-02-11T09:55:57.240Z,95.27
2023-02-11T09:56:57.239Z,95.27
2023-02-11T09:57:57.242Z,95.27
2023-02-11T09:58:57.219Z,95.27
2023-02-11T09:59:57.279Z,95.27
2023-02-11T10:00:57.283Z,95.27
2023-02-11T10:01:57.214Z,95.27
2023-02-11T10:02:57.199Z,95.27
2023-02-11T10:03:57.237Z,95.32
2023-02-11T10:04:57.186Z,95.32
2023-02-11T10:05:57.147Z,95.53
2023-02-11T10:06:57.168Z,95.53
2023-02-11T10:07:57.212Z,95.53
2023-02-11T10:08:57.119Z,95.64
2023-02-11T10:09:57.191Z,95.95
2023-02-11T10:10:57.110Z,96.20
2023-02-11T10:11:57.090Z,96.30
2023-02-11T10:12:57.053Z,96.41
2023-02-11T10:13:57.115Z,96.47
2023-02-11T10:14:57.036Z,96.41
2023-02-11T10:15:57.133Z,96.51
2023-02-11T10:16:57.053Z,96.56
2023-02-11T10:17:57.013Z,96.56
2023-02-11T10:18:57.052Z,96.56
2023-02-11T10:19:56.981Z,96.77
2023-02-11T10:20:56.987Z,96.98
2023-02-11T10:24:17.043Z,97.75
2023-02-11T10:25:17.991Z,97.96
2023-02-11T10:26:17.994Z,98.11
2023-02-11T10:27:17.976Z,98.27
2023-02-11T10:28:18.002Z,98.68
2023-02-11T10:29:17.979Z,98.68
2023-02-11T10:30:17.953Z,98.68
2023-02-11T10:31:18.143Z,98.68
2023-02-11T10:32:17.929Z,98.78
2023-02-11T10:33:17.913Z,98.78
2023-02-11T10:34:17.912Z,98.99
2023-02-11T10:35:17.965Z,99.19
2023-02-11T10:36:17.900Z,99.30
2023-02-11T10:37:17.872Z,99.30
2023-02-11T10:38:17.872Z,99.51
2023-02-11T10:39:17.863Z,99.40
2023-02-11T10:40:17.864Z,99.40
2023-02-11T10:41:17.833Z,99.51
2023-02-11T10:42:17.826Z,99.61
2023-02-11T10:43:17.804Z,99.51
2023-02-11T10:44:17.796Z,99.51
2023-02-11T10:45:17.793Z,99.40
2023-02-11T10:46:18.123Z,99.51
2023-02-11T10:47:17.770Z,99.61
2023-02-11T10:48:17.772Z,99.71
2023-02-11T10:49:17.737Z,99.61
2023-02-11T10:50:17.748Z,99.82
2023-02-11T10:51:17.754Z,99.82
2023-02-11T10:52:17.714Z,99.82
2023-02-11T10:53:17.695Z,99.99
2023-02-11T10:54:17.689Z,99.99
2023-02-11T10:55:17.676Z,99.99
2023-02-11T10:56:17.666Z,99.99
2023-02-11T10:57:17.673Z,99.99
2023-02-11T10:58:17.651Z,99.99
2023-02-11T10:59:19.769Z,99.99
2023-02-11T11:00:17.689Z,99.99
2023-02-11T11:01:24.400Z,99.99
2023-02-11T11:02:17.612Z,99.99
2023-02-11T11:03:17.593Z,99.99
2023-02-11T11:04:17.645Z,99.99
2023-02-11T11:05:17.588Z,99.99
2023-02-11T11:06:17.561Z,99.99
2023-02-11T11:07:17.561Z,99.99
2023-02-11T11:08:18.194Z,99.99
2023-02-11T11:09:17.532Z,99.99
2023-02-11T11:10:17.547Z,99.99
2023-02-11T11:11:17.505Z,99.99
2023-02-11T11:12:17.503Z,99.99
2023-02-11T11:13:17.485Z,99.99
2023-02-11T11:14:17.500Z,99.99
2023-02-11T11:15:17.476Z,99.99
2023-02-11T11:16:17.557Z,99.99
2023-02-11T11:17:17.441Z,99.99
2023-02-11T11:18:24.592Z,99.99
2023-02-11T11:19:17.439Z,99.99
2023-02-11T11:20:17.534Z,99.99
2023-02-11T11:21:17.428Z,99.99
2023-02-11T11:22:17.406Z,99.99
2023-02-11T11:23:17.387Z,99.99
2023-02-11T11:24:17.376Z,99.99
2023-02-11T11:25:17.369Z,99.99
2023-02-11T11:26:17.367Z,99.99
2023-02-11T11:27:17.381Z,99.99
2023-02-11T11:28:17.385Z,99.99
2023-02-11T11:29:17.342Z,99.99
2023-02-11T11:30:17.310Z,99.99
2023-02-11T11:31:17.397Z,99.99
2023-02-11T11:32:19.582Z,99.99
2023-02-11T11:33:17.276Z,99.99
2023-02-11T11:34:17.293Z,99.99
2023-02-11T11:35:17.243Z,99.99
2023-02-11T11:36:17.246Z,99.99
2023-02-11T11:37:17.248Z,99.99
2023-02-11T11:38:17.217Z,99.99
2023-02-11T11:39:17.232Z,99.99
2023-02-11T11:40:17.255Z,99.99
2023-02-11T11:41:17.197Z,99.99
2023-02-11T11:42:17.174Z,99.99
2023-02-11T11:43:17.190Z,99.99
2023-02-11T11:44:17.154Z,99.99
2023-02-11T11:45:17.145Z,99.99
2023-02-11T11:46:17.258Z,99.99
2023-02-11T11:47:17.128Z,99.99
2023-02-11T11:48:17.134Z,99.99
2023-02-11T11:49:17.105Z,99.99
2023-02-11T11:50:18.967Z,99.99
2023-02-11T11:51:17.085Z,99.99
2023-02-11T11:52:17.060Z,99.99
2023-02-11T11:53:17.051Z,99.99
2023-02-11T11:54:17.041Z,99.99
2023-02-11T11:55:17.065Z,99.99
2023-02-11T11:56:17.022Z,99.99
2023-02-11T11:57:17.018Z,99.99
2023-02-11T11:58:17.013Z,99.99
2023-02-11T11:59:16.992Z,99.99
2023-02-11T12:00:17.002Z,99.99
2023-02-11T12:01:16.969Z,99.99
2023-02-11T12:02:17.066Z,99.99
2023-02-11T12:03:17.040Z,99.99
2023-02-11T12:04:16.933Z,99.99
2023-02-11T12:05:17.017Z,99.99
2023-02-11T12:06:16.913Z,99.99
2023-02-11T12:07:16.919Z,99.99
2023-02-11T12:08:16.886Z,99.99
2023-02-11T12:09:16.893Z,99.99
2023-02-11T12:10:16.910Z,99.99
2023-02-11T12:11:16.865Z,99.99
2023-02-11T12:12:16.868Z,99.99
2023-02-11T12:13:16.845Z,99.99
2023-02-11T12:14:16.858Z,99.99
2023-02-11T12:15:16.817Z,99.99
2023-02-11T12:16:16.848Z,99.99
2023-02-11T12:17:16.818Z,99.99
2023-02-11T12:18:16.792Z,99.99
2023-02-11T12:19:16.795Z,99.99
2023-02-11T12:20:16.749Z,99.99
2023-02-11T12:21:16.759Z,99.99
2023-02-11T12:22:16.751Z,99.99
2023-02-11T12:23:16.741Z,99.99
2023-02-11T12:24:17.500Z,99.99
2023-02-11T12:25:16.726Z,99.99
2023-02-11T12:26:16.707Z,99.99
2023-02-11T12:27:16.750Z,99.99
2023-02-11T12:28:16.756Z,99.99
2023-02-11T12:29:16.693Z,99.99
2023-02-11T12:30:16.661Z,99.99
2023-02-11T12:31:16.831Z,99.99
2023-02-11T12:32:16.663Z,99.99
2023-02-11T12:33:16.632Z,99.99
2023-02-11T12:34:16.616Z,99.99
2023-02-11T12:35:16.622Z,99.99
2023-02-11T12:36:16.604Z,99.99
2023-02-11T12:37:16.593Z,99.99
2023-02-11T12:38:16.572Z,99.99
2023-02-11T12:39:16.640Z,99.99
2023-02-11T12:40:16.554Z,99.99
2023-02-11T12:41:16.548Z,99.99
2023-02-11T12:42:16.556Z,99.99
2023-02-11T12:43:16.619Z,99.99
2023-02-11T12:44:16.551Z,99.99
2023-02-11T12:45:16.518Z,99.99
2023-02-11T12:46:16.643Z,99.99
2023-02-11T12:47:16.502Z,99.99
2023-02-11T12:48:16.483Z,99.99
2023-02-11T12:49:16.494Z,99.99
2023-02-11T12:50:16.444Z,99.99
2023-02-11T12:51:16.549Z,99.99
2023-02-11T12:52:16.540Z,99.99
2023-02-11T12:53:16.492Z,99.99
2023-02-11T12:54:16.396Z,99.99
2023-02-11T12:55:16.397Z,99.99
2023-02-11T12:56:16.378Z,99.99
2023-02-11T12:57:16.377Z,99.99
2023-02-11T12:58:16.472Z,99.99
2023-02-11T12:59:16.528Z,99.99
2023-02-11T13:00:16.366Z,99.99
2023-02-11T13:01:16.364Z,99.99
2023-02-11T13:02:16.358Z,99.99
2023-02-11T13:03:16.357Z,99.99
2023-02-11T13:04:16.308Z,99.99
2023-02-11T13:05:16.317Z,99.99
2023-02-11T13:06:16.320Z,99.99
2023-02-11T13:07:16.275Z,99.99
2023-02-11T13:08:16.279Z,99.99
2023-02-11T13:09:16.345Z,99.99
2023-02-11T13:10:16.289Z,99.99
2023-02-11T13:11:16.229Z,99.99
2023-02-11T13:12:16.211Z,99.99
2023-02-11T13:13:16.226Z,99.99
2023-02-11T13:14:16.282Z,99.99
2023-02-11T13:15:16.211Z,99.99
2023-02-11T13:16:16.217Z,99.99
2023-02-11T13:17:16.188Z,99.99
2023-02-11T13:18:18.791Z,99.99
2023-02-11T13:19:16.140Z,99.99
2023-02-11T13:20:16.121Z,99.99
2023-02-11T13:21:16.146Z,99.99
2023-02-11T13:22:16.112Z,99.99
2023-02-11T13:23:16.121Z,99.99
2023-02-11T13:24:16.121Z,99.99
2023-02-11T13:25:16.096Z,99.99
2023-02-11T13:26:16.061Z,99.99
2023-02-11T13:27:16.046Z,99.99
2023-02-11T13:28:16.077Z,99.99
2023-02-11T13:29:16.030Z,99.99
2023-02-11T13:30:16.037Z,99.99
2023-02-11T13:31:16.106Z,99.99
2023-02-11T13:32:15.997Z,99.99
2023-02-11T13:33:16.015Z,99.99
2023-02-11T13:34:15.966Z,99.99
2023-02-11T13:35:15.962Z,99.99
2023-02-11T13:36:15.950Z,99.99
2023-02-11T13:37:15.937Z,99.99
2023-02-11T13:38:15.947Z,99.99
2023-02-11T13:39:15.928Z,99.99
2023-02-11T13:40:15.934Z,99.99
2023-02-11T13:41:15.916Z,99.99
2023-02-11T13:42:15.902Z,99.99
2023-02-11T13:43:15.874Z,99.99
2023-02-11T13:44:15.889Z,99.99
2023-02-11T13:45:15.873Z,99.99
2023-02-11T13:46:15.900Z,99.99
2023-02-11T13:47:15.840Z,99.99
2023-02-11T13:48:15.881Z,99.99
2023-02-11T13:49:15.880Z,99.99
2023-02-11T13:50:15.887Z,99.99
2023-02-11T13:51:15.824Z,99.99
2023-02-11T13:52:15.807Z,99.99
2023-02-11T13:53:16.188Z,99.99
2023-02-11T13:54:15.759Z,99.99
2023-02-11T13:55:15.743Z,99.99
2023-02-11T13:56:15.734Z,99.99
2023-02-11T13:57:15.737Z,99.99
2023-02-11T13:58:15.706Z,99.99
2023-02-11T13:59:15.712Z,99.99
2023-02-11T14:00:15.695Z,99.99
2023-02-11T14:01:15.733Z,99.99
2023-02-11T14:02:15.705Z,99.99
2023-02-11T14:03:15.671Z,99.99
2023-02-11T14:04:15.650Z,99.99
2023-02-11T14:05:15.689Z,99.99
2023-02-11T14:06:15.620Z,99.99
2023-02-11T14:07:15.624Z,99.99
2023-02-11T14:08:15.872Z,99.99
2023-02-11T14:09:15.651Z,99.99
2023-02-11T14:10:15.585Z,99.99
2023-02-11T14:11:15.572Z,99.99
2023-02-11T14:12:15.570Z,99.99
2023-02-11T14:13:15.548Z,99.99
2023-02-11T14:14:15.565Z,99.99
2023-02-11T14:15:15.535Z,99.99
2023-02-11T14:16:20.390Z,99.99
2023-02-11T14:17:15.563Z,99.99
2023-02-11T14:18:15.492Z,99.99
2023-02-11T14:19:15.498Z,99.99
2023-02-11T14:20:15.521Z,99.99
2023-02-11T14:21:15.499Z,99.99
2023-02-11T14:22:15.460Z,99.99
2023-02-11T14:23:15.449Z,99.99
2023-02-11T14:24:15.428Z,99.99
2023-02-11T14:25:15.448Z,99.99
2023-02-11T14:26:16.417Z,99.99
2023-02-11T14:27:15.413Z,99.99
2023-02-11T14:28:15.411Z,99.99
2023-02-11T14:29:15.379Z,99.99
2023-02-11T14:30:15.388Z,99.99
2023-02-11T14:31:15.499Z,99.99
2023-02-11T14:32:15.409Z,99.99
2023-02-11T14:33:15.348Z,99.99
2023-02-11T14:34:15.354Z,99.99
2023-02-11T14:35:15.349Z,99.99
2023-02-11T14:36:15.320Z,99.99
2023-02-11T14:37:15.289Z,99.99
2023-02-11T14:38:15.281Z,99.99
2023-02-11T14:39:15.289Z,99.99
2023-02-11T14:40:15.284Z,99.99
2023-02-11T14:41:15.255Z,99.99
2023-02-11T14:42:15.238Z,99.99
2023-02-11T14:43:15.247Z,99.99
2023-02-11T14:44:15.242Z,99.99
2023-02-11T14:45:15.220Z,99.99
2023-02-11T14:46:15.218Z,99.99
2023-02-11T14:47:15.195Z,99.99
2023-02-11T14:48:15.181Z,99.99
2023-02-11T14:49:15.182Z,99.99
2023-02-11T14:50:15.191Z,99.99
2023-02-11T14:51:15.165Z,99.99
2023-02-11T14:52:15.199Z,99.99
2023-02-11T14:53:15.193Z,99.99
2023-02-11T14:54:15.190Z,99.99
2023-02-11T14:55:15.134Z,99.99
2023-02-11T14:56:15.116Z,99.99
2023-02-11T14:57:15.094Z,99.99
2023-02-11T14:58:15.098Z,99.99
2023-02-11T14:59:15.062Z,99.99
2023-02-11T15:00:15.116Z,99.99
2023-02-11T15:01:15.066Z,99.99
2023-02-11T15:02:15.081Z,99.99
2023-02-11T15:03:15.028Z,99.99
2023-02-11T15:04:15.007Z,99.99
2023-02-11T15:05:14.994Z,99.99
2023-02-11T15:06:15.006Z,99.99
2023-02-11T15:07:14.990Z,99.99
2023-02-11T15:08:15.007Z,99.99
2023-02-11T15:09:14.952Z,99.99
2023-02-11T15:10:14.933Z,99.99
2023-02-11T15:11:14.971Z,99.99
2023-02-11T15:12:14.920Z,99.99
2023-02-11T15:13:14.948Z,99.99
2023-02-11T15:14:14.916Z,99.99
2023-02-11T15:15:14.894Z,99.99
2023-02-11T15:16:14.925Z,99.99
2023-02-11T15:17:14.880Z,99.99
2023-02-11T15:18:14.868Z,99.99
2023-02-11T15:19:14.846Z,99.99
2023-02-11T15:20:14.829Z,99.99
2023-02-11T15:21:14.942Z,99.99
2023-02-11T15:22:14.810Z,99.99
2023-02-11T15:23:14.831Z,99.99
2023-02-11T15:24:14.866Z,99.99
2023-02-11T15:25:14.778Z,99.99
2023-02-11T15:26:14.807Z,99.99
2023-02-11T15:27:14.804Z,99.99
2023-02-11T15:28:14.840Z,99.99
2023-02-11T15:29:14.747Z,99.99
2023-02-11T15:30:14.721Z,99.99
2023-02-11T15:31:14.799Z,99.99
2023-02-11T15:32:14.872Z,99.99
2023-02-11T15:33:14.694Z,99.99
2023-02-11T15:34:14.711Z,99.99
2023-02-11T15:35:14.738Z,99.99
2023-02-11T15:36:14.663Z,99.99
2023-02-11T15:37:14.659Z,99.99
2023-02-11T15:38:14.648Z,99.99
2023-02-11T15:39:14.647Z,99.99
2023-02-11T15:40:14.612Z,99.99
2023-02-11T15:41:14.615Z,99.99
2023-02-11T15:42:14.619Z,99.99
2023-02-11T15:43:14.599Z,99.99
2023-02-11T15:44:14.574Z,99.99
2023-02-11T15:45:14.563Z,99.99
2023-02-11T15:46:14.710Z,99.99
2023-02-11T15:47:14.548Z,99.99
2023-02-11T15:48:14.540Z,99.99
2023-02-11T15:49:16.380Z,99.99
2023-02-11T15:50:14.520Z,99.99
2023-02-11T15:51:14.506Z,99.99
2023-02-11T15:52:14.527Z,99.99
2023-02-11T15:53:14.484Z,99.99
2023-02-11T15:54:14.468Z,99.99
2023-02-11T15:55:14.469Z,99.99
2023-02-11T15:56:14.451Z,99.99
2023-02-11T15:57:14.441Z,99.99
2023-02-11T15:58:14.440Z,99.99
2023-02-11T15:59:14.410Z,99.99
2023-02-11T16:00:14.409Z,99.99
2023-02-11T16:01:14.390Z,99.99
2023-02-11T16:02:14.424Z,99.99
2023-02-11T16:03:14.389Z,99.99
2023-02-11T16:04:14.383Z,99.99
2023-02-11T16:05:14.366Z,99.99
2023-02-11T16:06:14.336Z,99.99
2023-02-11T16:07:14.323Z,99.99
2023-02-11T16:08:14.332Z,99.99
2023-02-11T16:09:14.302Z,99.99
2023-02-11T16:10:14.297Z,99.99
2023-02-11T16:11:14.293Z,99.99
2023-02-11T16:12:14.280Z,99.99
2023-02-11T16:13:14.273Z,99.99
2023-02-11T16:14:14.253Z,99.99
2023-02-11T16:15:14.263Z,99.99
2023-02-11T16:16:14.270Z,99.99
2023-02-11T16:17:14.213Z,99.99
2023-02-11T16:18:14.230Z,99.99
2023-02-11T16:19:14.196Z,99.99
2023-02-11T16:20:14.192Z,99.99
2023-02-11T16:21:14.185Z,99.99
2023-02-11T16:22:14.199Z,99.99
2023-02-11T16:23:14.149Z,99.99
2023-02-11T16:24:14.160Z,99.99
2023-02-11T16:25:14.140Z,99.99
2023-02-11T16:26:14.131Z,99.99
2023-02-11T16:27:14.108Z,99.99
2023-02-11T16:28:14.168Z,99.99
2023-02-11T16:29:14.095Z,99.99
2023-02-11T16:30:14.078Z,99.99
2023-02-11T16:31:14.183Z,99.99
2023-02-11T16:32:14.074Z,99.99
2023-02-11T16:33:14.057Z,99.99
2023-02-11T16:34:14.056Z,99.99
2023-02-11T16:35:14.039Z,99.99
2023-02-11T16:36:14.014Z,99.99
2023-02-11T16:37:14.014Z,99.99
2023-02-11T16:38:14.016Z,99.99
2023-02-11T16:39:13.996Z,99.99
2023-02-11T16:40:13.975Z,99.99
2023-02-11T16:41:14.029Z,99.99
2023-02-11T16:42:14.020Z,99.99
2023-02-11T16:43:14.008Z,99.99
2023-02-11T16:44:14.000Z,99.99
2023-02-11T16:45:13.971Z,99.99
2023-02-11T16:46:13.970Z,99.99
2023-02-11T16:47:13.980Z,99.99
2023-02-11T16:48:13.955Z,99.99
2023-02-11T16:49:13.943Z,99.99
2023-02-11T16:50:13.932Z,99.99
2023-02-11T16:51:13.910Z,99.99
2023-02-11T16:52:13.909Z,99.99
2023-02-11T16:53:13.884Z,99.99
2023-02-11T16:54:13.891Z,99.99
2023-02-11T16:55:15.277Z,99.99
2023-02-11T16:56:13.809Z,99.99
2023-02-11T16:57:13.844Z,99.99
2023-02-11T16:58:13.842Z,99.99
2023-02-11T16:59:13.832Z,99.99
2023-02-11T17:00:13.830Z,99.99
2023-02-11T17:01:14.341Z,99.99
2023-02-11T17:02:13.799Z,99.99
2023-02-11T17:03:13.988Z,99.99
2023-02-11T17:04:13.828Z,99.99
2023-02-11T17:05:13.753Z,99.99
2023-02-11T17:06:13.760Z,99.99
2023-02-11T17:07:13.746Z,99.99
2023-02-11T17:08:13.732Z,99.99
2023-02-11T17:09:13.722Z,99.99
2023-02-11T17:10:13.708Z,99.99
2023-02-11T17:11:13.703Z,99.99
2023-02-11T17:12:13.681Z,99.99
2023-02-11T17:13:13.689Z,99.99
2023-02-11T17:14:13.677Z,99.99
2023-02-11T17:15:13.654Z,99.99
2023-02-11T17:16:13.680Z,99.99
2023-02-11T17:17:13.630Z,99.99
2023-02-11T17:18:16.546Z,99.99
2023-02-11T17:19:14.882Z,99.99
2023-02-11T17:20:14.039Z,99.99
2023-02-11T17:21:13.727Z,99.99
2023-02-11T17:22:13.580Z,99.99
2023-02-11T17:23:13.568Z,99.99
2023-02-11T17:24:13.564Z,99.99
2023-02-11T17:25:13.547Z,99.99
2023-02-11T17:26:13.561Z,99.99
2023-02-11T17:27:13.547Z,99.99
2023-02-11T17:28:13.574Z,99.99
2023-02-11T17:29:13.519Z,99.99
2023-02-11T17:30:13.484Z,99.99
2023-02-11T17:31:13.695Z,99.99
2023-02-11T17:32:13.522Z,99.99
2023-02-11T17:33:13.452Z,99.99
2023-02-11T17:34:13.468Z,99.99
2023-02-11T17:35:13.444Z,99.99
2023-02-11T17:36:13.435Z,99.99
2023-02-11T17:37:13.585Z,99.99
2023-02-11T17:38:15.191Z,99.99
2023-02-11T17:39:13.630Z,99.99
2023-02-11T17:40:14.712Z,99.99
2023-02-11T17:41:13.511Z,99.99
2023-02-11T17:42:13.372Z,99.99
2023-02-11T17:43:13.356Z,99.99
2023-02-11T17:44:13.348Z,99.99
2023-02-11T17:45:13.325Z,99.99
2023-02-11T17:46:13.382Z,99.99
2023-02-11T17:47:13.317Z,99.99
2023-02-11T17:48:13.299Z,99.99
2023-02-11T17:49:13.281Z,99.99
2023-02-11T17:50:13.332Z,99.99
2023-02-11T17:51:13.273Z,99.99
2023-02-11T17:52:13.260Z,99.99
2023-02-11T17:53:13.285Z,99.99
2023-02-11T17:54:13.234Z,99.99
2023-02-11T17:55:13.246Z,99.99